createdAt,value
2019-03-08T00:00:20.544Z,90.90
2019-03-08T00:02:49.030Z,91.10
2019-03-08T00:05:17.688Z,90.80
2019-03-08T00:07:46.075Z,91.10
2019-03-08T00:10:14.518Z,91.10
2019-03-08T00:12:42.957Z,91.30
2019-03-08T00:15:12.446Z,90.80
2019-03-08T00:17:40.841Z,90.90
2019-03-08T00:20:10.702Z,90.80
2019-03-08T00:22:39.147Z,90.80
2019-03-08T00:25:12.518Z,90.80
2019-03-08T00:27:40.980Z,91.10
2019-03-08T00:30:11.706Z,90.90
2019-03-08T00:32:41.849Z,90.80
2019-03-08T00:35:10.862Z,90.80
2019-03-08T00:37:39.291Z,90.80
2019-03-08T00:40:10.461Z,90.90
2019-03-08T00:42:38.914Z,90.90
2019-03-08T00:45:15.002Z,90.70
2019-03-08T00:47:43.674Z,90.60
2019-03-08T00:50:12.064Z,90.60
2019-03-08T00:52:40.473Z,90.70
2019-03-08T00:55:10.356Z,90.60
2019-03-08T00:57:38.721Z,90.30
2019-03-08T01:00:18.684Z,90.20
2019-03-08T01:02:47.171Z,90.30
2019-03-08T01:05:16.503Z,90.30
2019-03-08T01:07:45.037Z,90.40
2019-03-08T01:10:18.683Z,90.30
2019-03-08T01:12:47.258Z,90.50
2019-03-08T01:15:17.255Z,90.70
2019-03-08T01:17:45.731Z,90.80
2019-03-08T01:20:16.585Z,91.50
2019-03-08T01:22:47.953Z,91.10
2019-03-08T01:25:16.405Z,91.30
2019-03-08T01:28:02.040Z,91.30
2019-03-08T01:30:31.543Z,91.20
2019-03-08T01:32:59.923Z,91.10
2019-03-08T01:35:28.337Z,91.10
2019-03-08T01:37:56.719Z,91.10
2019-03-08T01:40:25.094Z,91.10
2019-03-08T01:42:54.036Z,91.10
2019-03-08T01:45:22.420Z,90.80
2019-03-08T01:47:50.845Z,91.00
2019-03-08T01:50:19.233Z,91.00
2019-03-08T01:52:47.706Z,90.90
2019-03-08T01:55:16.098Z,90.90
2019-03-08T01:57:44.472Z,90.70
2019-03-08T02:00:18.929Z,90.70
2019-03-08T02:02:47.362Z,90.90
2019-03-08T02:05:16.129Z,90.90
2019-03-08T02:07:44.577Z,91.00
2019-03-08T02:10:14.609Z,90.90
2019-03-08T02:12:43.093Z,90.90
2019-03-08T02:15:16.142Z,90.90
2019-03-08T02:17:46.752Z,91.10
2019-03-08T02:20:17.810Z,91.00
2019-03-08T02:22:46.311Z,91.00
2019-03-08T02:25:14.676Z,91.20
2019-03-08T02:27:43.070Z,91.10
2019-03-08T02:30:16.086Z,91.20
2019-03-08T02:32:44.744Z,91.20
2019-03-08T02:35:13.246Z,91.20
2019-03-08T02:37:41.632Z,91.20
2019-03-08T02:40:54.918Z,91.30
2019-03-08T02:43:23.387Z,91.30
2019-03-08T02:45:52.100Z,91.40
2019-03-08T02:48:20.632Z,91.30
2019-03-08T02:50:49.088Z,91.40
2019-03-08T02:53:17.562Z,91.30
2019-03-08T02:55:45.965Z,91.40
2019-03-08T02:58:14.415Z,91.50
2019-03-08T03:00:45.871Z,91.50
2019-03-08T03:03:14.309Z,91.60
2019-03-08T03:05:42.813Z,91.60
2019-03-08T03:08:11.253Z,91.90
2019-03-08T03:10:39.645Z,92.20
2019-03-08T03:13:08.147Z,92.50
2019-03-08T03:15:36.518Z,93.00
2019-03-08T03:18:04.874Z,93.10
2019-03-08T03:20:33.332Z,93.30
2019-03-08T03:23:01.786Z,93.70
2019-03-08T03:25:30.854Z,93.60
2019-03-08T03:27:59.290Z,93.80
2019-03-08T03:30:27.676Z,93.80
2019-03-08T03:32:56.060Z,93.90
2019-03-08T03:35:24.440Z,93.80
2019-03-08T03:37:52.854Z,93.90
2019-03-08T03:40:21.242Z,93.80
2019-03-08T03:42:49.622Z,94.00
2019-03-08T03:45:19.369Z,94.10
2019-03-08T03:47:47.796Z,94.30
2019-03-08T03:50:16.177Z,94.00
2019-03-08T03:52:44.534Z,94.10
2019-03-08T03:55:15.065Z,94.10
2019-03-08T03:57:43.493Z,94.20
2019-03-08T04:00:17.599Z,94.40
2019-03-08T04:02:47.620Z,94.50
2019-03-08T04:05:16.053Z,94.60
2019-03-08T04:07:44.506Z,94.50
2019-03-08T04:10:14.445Z,94.60
2019-03-08T04:12:42.833Z,94.40
2019-03-08T04:15:14.022Z,94.50
2019-03-08T04:17:42.392Z,94.30
2019-03-08T04:20:12.906Z,94.30
2019-03-08T04:22:41.354Z,94.40
2019-03-08T04:25:10.882Z,94.40
2019-03-08T04:27:39.254Z,94.30
2019-03-08T04:30:10.678Z,94.60
2019-03-08T04:32:39.238Z,94.80
2019-03-08T04:35:07.642Z,94.90
2019-03-08T04:37:36.019Z,95.10
2019-03-08T04:40:06.444Z,95.10
2019-03-08T04:42:34.847Z,95.10
2019-03-08T04:45:03.800Z,95.20
2019-03-08T04:47:35.071Z,95.20
2019-03-08T04:50:04.010Z,95.20
2019-03-08T04:52:32.366Z,95.20
2019-03-08T04:55:00.773Z,95.40
2019-03-08T04:57:29.235Z,95.40
2019-03-08T04:59:57.703Z,95.50
2019-03-08T05:02:26.057Z,96.10
2019-03-08T05:04:54.438Z,96.00
2019-03-08T05:07:22.801Z,96.10
2019-03-08T05:09:51.235Z,96.20
2019-03-08T05:12:19.701Z,96.10
2019-03-08T05:14:48.097Z,96.20
2019-03-08T05:17:16.950Z,96.00
2019-03-08T05:19:45.430Z,96.00
2019-03-08T05:22:13.816Z,96.00
2019-03-08T05:24:42.242Z,95.90
2019-03-08T05:27:10.638Z,96.00
2019-03-08T05:29:40.758Z,95.90
2019-03-08T05:32:09.332Z,96.00
2019-03-08T05:34:37.708Z,96.00
2019-03-08T05:37:06.076Z,96.00
2019-03-08T05:39:34.534Z,96.00
2019-03-08T05:42:09.000Z,96.00
2019-03-08T05:44:37.387Z,95.90
2019-03-08T05:47:05.874Z,95.90
2019-03-08T05:49:34.228Z,95.80
2019-03-08T05:52:02.690Z,95.70
2019-03-08T05:54:31.084Z,95.70
2019-03-08T05:56:59.515Z,95.70
2019-03-08T05:59:27.895Z,95.50
2019-03-08T06:01:56.505Z,95.50
2019-03-08T06:04:24.873Z,95.50
2019-03-08T06:06:53.233Z,95.50
2019-03-08T06:09:21.713Z,95.40
2019-03-08T06:11:50.106Z,95.40
2019-03-08T06:14:18.505Z,95.40
2019-03-08T06:16:47.182Z,95.50
2019-03-08T06:19:15.966Z,95.50
2019-03-08T06:21:44.342Z,95.40
2019-03-08T06:24:12.836Z,95.40
2019-03-08T06:26:41.202Z,95.30
2019-03-08T06:29:09.616Z,95.20
2019-03-08T06:31:37.986Z,95.10
2019-03-08T06:34:06.370Z,95.20
2019-03-08T06:36:34.747Z,95.00
2019-03-08T06:39:04.783Z,95.10
2019-03-08T06:41:34.127Z,95.00
2019-03-08T06:44:02.590Z,95.00
2019-03-08T06:46:30.959Z,95.00
2019-03-08T06:48:59.338Z,95.00
2019-03-08T06:51:27.707Z,95.10
2019-03-08T06:53:56.101Z,95.30
2019-03-08T06:56:24.584Z,95.30
2019-03-08T06:58:54.617Z,95.30
2019-03-08T07:01:23.788Z,95.40
2019-03-08T07:03:52.139Z,95.40
2019-03-08T07:06:20.582Z,95.20
2019-03-08T07:08:48.962Z,95.10
2019-03-08T07:11:17.362Z,94.90
2019-03-08T07:13:45.746Z,94.80
2019-03-08T07:16:14.459Z,94.90
2019-03-08T07:18:43.454Z,94.80
2019-03-08T07:21:25.548Z,94.60
2019-03-08T07:24:06.555Z,94.60
2019-03-08T07:26:36.578Z,94.40
2019-03-08T07:29:06.606Z,94.40
2019-03-08T07:31:39.399Z,94.40
2019-03-08T07:34:25.613Z,94.10
2019-03-08T07:37:01.847Z,94.00
2019-03-08T07:39:46.863Z,94.00
2019-03-08T07:42:16.865Z,94.00
2019-03-08T07:44:56.089Z,93.40
2019-03-08T07:47:42.434Z,93.50
2019-03-08T07:50:23.285Z,93.10
2019-03-08T07:52:56.097Z,92.90
2019-03-08T07:55:26.157Z,93.30
2019-03-08T07:57:58.833Z,92.80
2019-03-08T08:00:31.282Z,92.80
2019-03-08T08:03:10.066Z,92.40
2019-03-08T08:05:45.804Z,92.40
2019-03-08T08:08:18.774Z,92.00
2019-03-08T08:10:57.694Z,91.80
2019-03-08T08:13:42.824Z,92.20
2019-03-08T08:16:18.949Z,91.90
2019-03-08T08:19:00.859Z,91.60
2019-03-08T08:21:36.648Z,91.40
2019-03-08T08:24:09.380Z,91.60
2019-03-08T08:26:56.755Z,91.90
2019-03-08T08:29:38.788Z,92.00
2019-03-08T08:32:08.117Z,92.40
2019-03-08T08:34:54.177Z,92.70
2019-03-08T08:37:24.553Z,93.00
2019-03-08T08:40:03.433Z,93.10
2019-03-08T08:42:42.235Z,93.10
2019-03-08T08:45:15.362Z,93.30
2019-03-08T08:47:48.097Z,93.50
2019-03-08T08:50:23.601Z,93.50
2019-03-08T08:53:09.740Z,93.10
2019-03-08T08:55:52.514Z,93.10
2019-03-08T08:58:21.858Z,93.50
2019-03-08T09:01:03.877Z,93.90
2019-03-08T09:03:33.876Z,93.90
2019-03-08T09:06:21.758Z,94.00
2019-03-08T09:08:51.772Z,94.10
2019-03-08T09:11:21.783Z,93.60
2019-03-08T09:13:54.542Z,93.60
2019-03-08T09:16:42.806Z,93.60
2019-03-08T09:19:18.498Z,93.50
2019-03-08T09:21:48.516Z,93.20
2019-03-08T09:24:36.406Z,93.50
2019-03-08T09:27:06.478Z,92.90
2019-03-08T09:29:42.087Z,92.90
2019-03-08T09:32:23.961Z,92.80
2019-03-08T09:35:05.943Z,92.90
2019-03-08T09:37:41.970Z,92.70
2019-03-08T09:40:25.562Z,93.30
2019-03-08T09:43:01.302Z,93.70
2019-03-08T09:45:31.322Z,93.40
2019-03-08T09:48:01.330Z,93.70
2019-03-08T09:50:43.381Z,93.50
2019-03-08T09:53:22.354Z,93.30
2019-03-08T09:55:52.370Z,92.80
2019-03-08T09:58:38.498Z,93.50
2019-03-08T10:01:16.421Z,93.40
2019-03-08T10:03:55.042Z,93.30
2019-03-08T10:06:31.024Z,93.70
2019-03-08T10:09:16.169Z,94.20
2019-03-08T10:11:49.141Z,94.00
2019-03-08T10:14:21.877Z,94.00
2019-03-08T10:17:03.737Z,94.10
2019-03-08T10:19:33.779Z,94.70
2019-03-08T10:22:20.107Z,94.20
2019-03-08T10:25:06.208Z,93.90
2019-03-08T10:27:45.227Z,94.70
2019-03-08T10:30:15.286Z,94.50
2019-03-08T10:32:45.312Z,94.20
2019-03-08T10:35:23.532Z,95.00
2019-03-08T10:37:53.174Z,95.00
2019-03-08T10:40:25.899Z,94.90
2019-03-08T10:42:55.966Z,94.40
2019-03-08T10:45:28.876Z,94.90
2019-03-08T10:48:01.664Z,95.30
2019-03-08T10:50:31.763Z,95.90
2019-03-08T10:53:13.875Z,95.10
2019-03-08T10:55:46.629Z,95.40
2019-03-08T10:58:16.656Z,94.10
2019-03-08T11:00:58.321Z,93.90
2019-03-08T11:03:34.557Z,94.60
2019-03-08T11:06:04.693Z,94.10
2019-03-08T11:08:34.695Z,94.10
2019-03-08T11:11:13.525Z,94.40
2019-03-08T11:13:49.353Z,93.70
2019-03-08T11:16:22.408Z,93.50
2019-03-08T11:18:55.184Z,93.00
2019-03-08T11:21:41.633Z,93.50
2019-03-08T11:24:11.633Z,93.10
2019-03-08T11:26:41.862Z,93.80
2019-03-08T11:29:28.193Z,93.20
2019-03-08T11:32:23.154Z,93.70
2019-03-08T11:34:52.324Z,93.70
2019-03-08T11:37:22.390Z,94.30
2019-03-08T11:39:55.182Z,94.30
2019-03-08T11:42:41.396Z,94.50
2019-03-08T11:45:13.962Z,93.30
2019-03-08T11:47:46.996Z,92.50
2019-03-08T11:50:32.018Z,92.60
2019-03-08T11:53:04.496Z,93.00
2019-03-08T11:55:37.513Z,92.70
2019-03-08T11:58:23.620Z,93.50
2019-03-08T12:01:10.097Z,93.60
2019-03-08T12:03:56.853Z,94.60
2019-03-08T12:06:26.929Z,93.40
2019-03-08T12:09:12.258Z,93.30
2019-03-08T12:11:56.677Z,93.60
2019-03-08T12:14:38.874Z,92.90
2019-03-08T12:17:24.773Z,92.60
2019-03-08T12:19:55.594Z,93.40
2019-03-08T12:22:31.610Z,94.20
2019-03-08T12:25:01.775Z,94.80
2019-03-08T12:27:34.352Z,94.90
2019-03-08T12:30:04.712Z,94.50
2019-03-08T12:32:37.724Z,93.20
2019-03-08T12:35:10.253Z,93.60
2019-03-08T12:37:40.298Z,91.90
2019-03-08T12:40:20.754Z,92.30
2019-03-08T12:42:50.764Z,92.50
2019-03-08T12:45:32.350Z,92.90
2019-03-08T12:48:23.620Z,93.10
2019-03-08T12:50:54.580Z,92.60
2019-03-08T12:53:28.326Z,92.20
2019-03-08T12:56:07.298Z,91.90
2019-03-08T12:58:40.465Z,92.00
2019-03-08T13:01:13.860Z,91.60
2019-03-08T13:03:52.821Z,92.40
2019-03-08T13:06:32.149Z,92.90
2019-03-08T13:09:18.794Z,93.90
2019-03-08T13:11:47.291Z,94.80
2019-03-08T13:14:15.681Z,95.10
2019-03-08T13:16:45.492Z,93.20
2019-03-08T13:19:13.866Z,92.10
2019-03-08T13:21:42.413Z,90.80
2019-03-08T13:24:11.110Z,90.70
2019-03-08T13:26:39.638Z,90.20
2019-03-08T13:29:08.263Z,90.20
2019-03-08T13:31:36.804Z,90.20
2019-03-08T13:34:05.186Z,91.00
2019-03-08T13:36:33.571Z,90.90
2019-03-08T13:39:02.328Z,91.00
2019-03-08T13:41:30.764Z,91.20
2019-03-08T13:44:00.643Z,91.70
2019-03-08T13:46:29.351Z,91.60
2019-03-08T13:48:57.819Z,91.90
2019-03-08T13:51:26.196Z,92.80
2019-03-08T13:53:54.792Z,93.60
2019-03-08T13:56:28.483Z,94.40
2019-03-08T13:58:56.913Z,93.20
2019-03-08T14:01:25.297Z,93.00
2019-03-08T14:03:53.729Z,93.00
2019-03-08T14:06:22.113Z,91.70
2019-03-08T14:08:50.555Z,91.80
2019-03-08T14:11:18.939Z,92.20
2019-03-08T14:13:47.345Z,91.40
2019-03-08T14:16:15.737Z,91.90
2019-03-08T14:18:44.122Z,91.00
2019-03-08T14:21:13.154Z,91.60
2019-03-08T14:23:41.662Z,91.70
2019-03-08T14:26:10.122Z,92.70
2019-03-08T14:28:38.582Z,92.90
2019-03-08T14:31:14.300Z,92.90
2019-03-08T14:33:42.743Z,91.90
2019-03-08T14:36:11.317Z,91.70
2019-03-08T14:38:39.883Z,91.40
2019-03-08T14:41:12.956Z,91.80
2019-03-08T14:43:48.995Z,91.90
2019-03-08T14:46:21.051Z,91.20
2019-03-08T14:48:47.592Z,91.50
2019-03-08T14:51:15.916Z,91.10
2019-03-08T14:53:45.367Z,90.20
2019-03-08T14:56:13.749Z,88.60
2019-03-08T14:58:42.125Z,89.90
2019-03-08T15:01:10.909Z,88.50
2019-03-08T15:03:43.238Z,90.00
2019-03-08T15:06:09.461Z,90.40
2019-03-08T15:08:37.846Z,90.70
2019-03-08T15:11:07.685Z,90.30
2019-03-08T15:13:36.253Z,90.60
2019-03-08T15:16:04.614Z,90.10
2019-03-08T15:18:33.002Z,90.30
2019-03-08T15:21:01.430Z,89.90
2019-03-08T15:23:29.850Z,89.90
2019-03-08T15:25:58.236Z,90.50
2019-03-08T15:28:26.890Z,88.00
2019-03-08T15:30:57.499Z,87.90
2019-03-08T15:33:25.512Z,88.20
2019-03-08T15:35:53.902Z,88.30
2019-03-08T15:38:23.184Z,86.60
2019-03-08T15:40:52.100Z,85.90
2019-03-08T15:43:20.515Z,85.20
2019-03-08T15:45:49.095Z,85.50
2019-03-08T15:48:17.453Z,84.60
2019-03-08T15:50:46.661Z,85.20
2019-03-08T15:53:15.924Z,85.60
2019-03-08T15:55:52.588Z,85.80
2019-03-08T15:58:14.813Z,86.10
2019-03-08T16:00:44.141Z,87.90
2019-03-08T16:03:12.690Z,88.60
2019-03-08T16:05:42.617Z,90.10
2019-03-08T16:08:12.373Z,90.50
2019-03-08T16:10:40.833Z,91.80
2019-03-08T16:13:09.655Z,92.80
2019-03-08T16:15:38.146Z,93.40
2019-03-08T16:18:06.526Z,94.00
2019-03-08T16:20:37.219Z,93.70
2019-03-08T16:23:06.486Z,93.90
2019-03-08T16:25:40.029Z,93.80
2019-03-08T16:28:06.720Z,93.30
2019-03-08T16:30:39.190Z,92.40
2019-03-08T16:33:30.539Z,91.50
2019-03-08T16:36:00.979Z,90.40
2019-03-08T16:38:34.002Z,90.40
2019-03-08T16:41:10.214Z,90.30
2019-03-08T16:43:55.443Z,89.90
2019-03-08T16:46:25.777Z,90.30
2019-03-08T16:49:14.862Z,89.80
2019-03-08T16:52:00.838Z,88.30
2019-03-08T16:54:34.670Z,88.70
2019-03-08T16:57:17.091Z,87.90
2019-03-08T16:59:58.945Z,87.70
2019-03-08T17:02:29.026Z,87.60
2019-03-08T17:07:43.222Z,87.10
2019-03-08T17:10:29.300Z,86.50
2019-03-08T17:13:02.266Z,85.90
2019-03-08T17:15:32.330Z,85.70
2019-03-08T17:18:02.589Z,85.80
2019-03-08T17:20:38.696Z,85.20
2019-03-08T17:23:08.799Z,85.20
2019-03-08T17:25:41.616Z,83.20
2019-03-08T17:28:20.226Z,84.10
2019-03-08T17:31:06.642Z,83.80
2019-03-08T17:33:48.800Z,84.20
2019-03-08T17:36:24.665Z,84.10
2019-03-08T17:39:00.435Z,84.40
2019-03-08T17:41:46.915Z,84.30
2019-03-08T17:44:17.761Z,84.10
2019-03-08T17:46:56.833Z,85.10
2019-03-08T17:49:43.648Z,84.00
2019-03-08T17:52:16.251Z,83.10
2019-03-08T17:58:02.133Z,82.40
2019-03-08T18:03:26.514Z,82.30
2019-03-08T18:06:02.826Z,82.40
2019-03-08T18:08:35.814Z,83.00
2019-03-08T18:11:22.144Z,82.70
2019-03-08T18:14:07.851Z,82.40
2019-03-08T18:16:40.706Z,82.20
2019-03-08T18:19:10.786Z,82.10
2019-03-08T18:21:42.345Z,82.10
2019-03-08T18:24:28.928Z,81.90
2019-03-08T18:27:02.108Z,82.00
2019-03-08T18:29:36.033Z,82.00
2019-03-08T18:32:06.045Z,82.10
2019-03-08T18:34:45.100Z,82.30
2019-03-08T18:37:31.669Z,82.20
2019-03-08T18:40:18.290Z,82.80
2019-03-08T18:42:51.201Z,82.60
2019-03-08T18:45:30.469Z,83.20
2019-03-08T18:48:04.660Z,83.00
2019-03-08T18:50:34.614Z,83.10
2019-03-08T18:53:20.800Z,83.30
2019-03-08T18:55:50.805Z,83.40
2019-03-08T18:58:26.615Z,84.00
2019-03-08T19:01:05.765Z,84.20
2019-03-08T19:03:41.996Z,84.30
2019-03-08T19:06:14.454Z,84.60
2019-03-08T19:08:50.250Z,84.40
2019-03-08T19:11:36.732Z,84.70
2019-03-08T19:14:24.935Z,84.60
2019-03-08T19:17:01.068Z,84.90
2019-03-08T19:19:47.876Z,85.00
2019-03-08T19:22:26.359Z,85.20
2019-03-08T19:24:55.039Z,85.70
2019-03-08T19:27:27.747Z,86.00
2019-03-08T19:32:47.730Z,86.40
2019-03-08T19:35:29.819Z,86.40
2019-03-08T19:38:16.437Z,85.60
2019-03-08T19:40:58.580Z,86.60
2019-03-08T19:43:37.837Z,85.00
2019-03-08T19:46:27.281Z,85.10
2019-03-08T19:48:57.956Z,85.50
2019-03-08T19:51:39.973Z,86.30
2019-03-08T19:54:12.640Z,86.80
2019-03-08T19:56:54.894Z,86.40
2019-03-08T19:59:31.402Z,86.30
2019-03-08T20:02:07.393Z,86.80
2019-03-08T20:04:37.427Z,87.60
2019-03-08T20:07:19.602Z,87.60
2019-03-08T20:10:08.847Z,88.10
2019-03-08T20:12:40.187Z,88.40
2019-03-08T20:15:22.009Z,88.20
2019-03-08T20:17:56.377Z,89.20
2019-03-08T20:20:38.535Z,89.50
2019-03-08T20:23:08.550Z,89.30
2019-03-08T20:25:56.802Z,90.00
2019-03-08T20:28:30.463Z,90.30
2019-03-08T20:31:12.159Z,90.50
2019-03-08T20:33:42.248Z,90.80
2019-03-08T20:36:15.042Z,90.90
2019-03-08T20:38:57.390Z,90.90
2019-03-08T20:41:30.006Z,91.10
2019-03-08T20:44:00.158Z,91.50
2019-03-08T20:46:30.224Z,91.30
2019-03-08T20:49:01.420Z,90.90
2019-03-08T20:51:29.804Z,90.90
2019-03-08T20:53:58.175Z,90.70
2019-03-08T20:56:26.696Z,90.60
2019-03-08T20:58:55.238Z,90.60
2019-03-08T21:01:24.106Z,90.50
2019-03-08T21:03:57.027Z,90.70
2019-03-08T21:06:26.273Z,91.00
2019-03-08T21:08:54.655Z,91.20
2019-03-08T21:11:24.557Z,91.10
2019-03-08T21:13:53.185Z,91.10
2019-03-08T21:16:25.670Z,91.10
2019-03-08T21:18:54.158Z,91.10
2019-03-08T21:21:22.604Z,90.90
2019-03-08T21:23:51.053Z,90.90
2019-03-08T21:26:19.495Z,90.80
2019-03-08T21:28:49.908Z,90.90
2019-03-08T21:31:18.397Z,90.80
2019-03-08T21:33:46.808Z,90.70
2019-03-08T21:36:19.095Z,90.40
2019-03-08T21:39:07.005Z,90.50
2019-03-08T21:41:37.501Z,90.50
2019-03-08T21:44:05.935Z,90.50
2019-03-08T21:46:34.318Z,90.50
2019-03-08T21:49:03.042Z,90.20
2019-03-08T21:51:31.419Z,90.00
2019-03-08T21:53:59.855Z,90.00
2019-03-08T21:56:28.332Z,90.20
2019-03-08T21:58:56.776Z,90.10
2019-03-08T22:01:29.598Z,90.10
2019-03-08T22:03:59.603Z,90.10
2019-03-08T22:06:27.963Z,90.10
2019-03-08T22:08:57.997Z,90.20
2019-03-08T22:11:28.555Z,90.20
2019-03-08T22:13:57.005Z,90.30
2019-03-08T22:16:28.109Z,90.20
2019-03-08T22:18:56.625Z,90.20
2019-03-08T22:21:25.133Z,90.20
2019-03-08T22:23:53.563Z,90.20
2019-03-08T22:26:23.657Z,90.00
2019-03-08T22:28:52.151Z,89.70
2019-03-08T22:31:20.571Z,89.30
2019-03-08T22:33:49.193Z,89.10
2019-03-08T22:36:17.702Z,89.30
2019-03-08T22:38:46.234Z,89.10
2019-03-08T22:41:14.919Z,89.30
2019-03-08T22:43:45.066Z,89.20
2019-03-08T22:46:14.456Z,89.30
2019-03-08T22:48:42.932Z,89.20
2019-03-08T22:51:11.284Z,88.80
2019-03-08T22:53:41.302Z,89.00
2019-03-08T22:56:10.085Z,89.10
2019-03-08T22:58:41.191Z,89.90
2019-03-08T23:01:10.718Z,88.90
2019-03-08T23:03:39.203Z,89.10
2019-03-08T23:06:07.668Z,88.80
2019-03-08T23:08:36.258Z,88.90
2019-03-08T23:11:04.794Z,88.80
2019-03-08T23:13:35.587Z,88.50
2019-03-08T23:16:04.160Z,88.50
2019-03-08T23:18:35.357Z,88.40
2019-03-08T23:21:03.803Z,88.40
2019-03-08T23:23:33.062Z,88.40
2019-03-08T23:26:01.446Z,88.40
2019-03-08T23:28:37.393Z,88.40
2019-03-08T23:31:13.284Z,88.70
2019-03-08T23:33:42.152Z,89.00
2019-03-08T23:36:10.530Z,90.00
2019-03-08T23:38:38.996Z,89.20
2019-03-08T23:41:07.414Z,89.30
2019-03-08T23:43:36.092Z,89.10
2019-03-08T23:46:04.504Z,89.00
2019-03-08T23:48:32.944Z,88.80
2019-03-08T23:51:01.418Z,89.10
2019-03-08T23:53:29.880Z,89.10
2019-03-08T23:56:00.143Z,89.30
2019-03-08T23:58:28.740Z,89.40
